sensor_id;sensor_type;location;lat;lon;timestamp;P1;durP1;ratioP1;P2;durP2;ratioP2
1545;SDS011;766;51.502;9.752;2022-10-16T00:00:14;2.30;;;1.92;;
1545;SDS011;766;51.502;9.752;2022-10-16T00:02:43;3.45;;;2.28;;
1545;SDS011;766;51.502;9.752;2022-10-16T00:05:14;3.10;;;2.45;;
1545;SDS011;766;51.502;9.752;2022-10-16T00:07:51;1.95;;;1.85;;
1545;SDS011;766;51.502;9.752;2022-10-16T00:10:23;3.97;;;2.50;;
1545;SDS011;766;51.502;9.752;2022-10-16T00:12:51;5.68;;;2.42;;
1545;SDS011;766;51.502;9.752;2022-10-16T00:15:21;3.58;;;2.50;;
1545;SDS011;766;51.502;9.752;2022-10-16T00:17:50;4.32;;;2.20;;
1545;SDS011;766;51.502;9.752;2022-10-16T00:20:18;2.90;;;2.30;;
1545;SDS011;766;51.502;9.752;2022-10-16T00:22:46;4.63;;;2.10;;
1545;SDS011;766;51.502;9.752;2022-10-16T00:25:15;4.38;;;2.40;;
1545;SDS011;766;51.502;9.752;2022-10-16T00:27:43;4.57;;;2.45;;
1545;SDS011;766;51.502;9.752;2022-10-16T00:30:12;3.42;;;2.00;;
1545;SDS011;766;51.502;9.752;2022-10-16T00:32:43;4.10;;;2.45;;
1545;SDS011;766;51.502;9.752;2022-10-16T00:35:16;2.08;;;1.92;;
1545;SDS011;766;51.502;9.752;2022-10-16T00:37:44;4.60;;;2.10;;
1545;SDS011;766;51.502;9.752;2022-10-16T00:40:13;6.47;;;2.33;;
1545;SDS011;766;51.502;9.752;2022-10-16T00:42:41;2.15;;;1.95;;
1545;SDS011;766;51.502;9.752;2022-10-16T00:45:10;2.28;;;2.00;;
1545;SDS011;766;51.502;9.752;2022-10-16T00:47:39;3.80;;;2.13;;
1545;SDS011;766;51.502;9.752;2022-10-16T00:50:16;3.60;;;1.92;;
1545;SDS011;766;51.502;9.752;2022-10-16T00:52:52;2.33;;;2.13;;
1545;SDS011;766;51.502;9.752;2022-10-16T00:55:22;4.38;;;1.80;;
1545;SDS011;766;51.502;9.752;2022-10-16T00:57:52;3.22;;;2.28;;
1545;SDS011;766;51.502;9.752;2022-10-16T01:00:22;5.40;;;2.20;;
1545;SDS011;766;51.502;9.752;2022-10-16T01:02:52;3.25;;;1.98;;
1545;SDS011;766;51.502;9.752;2022-10-16T01:05:23;4.18;;;2.10;;
1545;SDS011;766;51.502;9.752;2022-10-16T01:08:12;3.42;;;2.08;;
1545;SDS011;766;51.502;9.752;2022-10-16T01:10:45;3.58;;;2.33;;
1545;SDS011;766;51.502;9.752;2022-10-16T01:13:21;4.10;;;2.33;;
1545;SDS011;766;51.502;9.752;2022-10-16T01:15:54;2.90;;;2.20;;
1545;SDS011;766;51.502;9.752;2022-10-16T01:18:28;3.25;;;2.80;;
1545;SDS011;766;51.502;9.752;2022-10-16T01:21:03;5.15;;;2.90;;
1545;SDS011;766;51.502;9.752;2022-10-16T01:23:37;7.43;;;3.08;;
1545;SDS011;766;51.502;9.752;2022-10-16T01:26:31;4.32;;;3.00;;
1545;SDS011;766;51.502;9.752;2022-10-16T01:29:09;3.80;;;3.20;;
1545;SDS011;766;51.502;9.752;2022-10-16T01:31:44;3.13;;;2.83;;
1545;SDS011;766;51.502;9.752;2022-10-16T01:34:20;9.20;;;3.20;;
1545;SDS011;766;51.502;9.752;2022-10-16T01:37:00;7.93;;;3.50;;
1545;SDS011;766;51.502;9.752;2022-10-16T01:39:38;3.53;;;2.60;;
1545;SDS011;766;51.502;9.752;2022-10-16T01:42:09;5.63;;;2.70;;
1545;SDS011;766;51.502;9.752;2022-10-16T01:44:43;3.95;;;2.80;;
1545;SDS011;766;51.502;9.752;2022-10-16T01:47:15;5.47;;;2.67;;
1545;SDS011;766;51.502;9.752;2022-10-16T01:49:47;2.95;;;2.25;;
1545;SDS011;766;51.502;9.752;2022-10-16T01:52:17;2.78;;;2.50;;
1545;SDS011;766;51.502;9.752;2022-10-16T01:54:50;4.10;;;3.05;;
1545;SDS011;766;51.502;9.752;2022-10-16T01:57:23;3.78;;;2.55;;
1545;SDS011;766;51.502;9.752;2022-10-16T01:59:54;7.65;;;2.60;;
1545;SDS011;766;51.502;9.752;2022-10-16T02:02:26;3.25;;;2.58;;
1545;SDS011;766;51.502;9.752;2022-10-16T02:05:01;2.70;;;2.50;;
1545;SDS011;766;51.502;9.752;2022-10-16T02:07:36;4.00;;;2.35;;
1545;SDS011;766;51.502;9.752;2022-10-16T02:10:05;2.45;;;2.25;;
1545;SDS011;766;51.502;9.752;2022-10-16T02:12:34;2.72;;;2.40;;
1545;SDS011;766;51.502;9.752;2022-10-16T02:15:07;3.03;;;2.20;;
1545;SDS011;766;51.502;9.752;2022-10-16T02:17:36;17.10;;;2.35;;
1545;SDS011;766;51.502;9.752;2022-10-16T02:20:05;2.30;;;1.88;;
1545;SDS011;766;51.502;9.752;2022-10-16T02:22:34;4.55;;;2.50;;
1545;SDS011;766;51.502;9.752;2022-10-16T02:25:06;6.53;;;3.00;;
1545;SDS011;766;51.502;9.752;2022-10-16T02:27:38;6.13;;;2.70;;
1545;SDS011;766;51.502;9.752;2022-10-16T02:30:17;3.05;;;2.78;;
1545;SDS011;766;51.502;9.752;2022-10-16T02:32:51;5.05;;;2.85;;
1545;SDS011;766;51.502;9.752;2022-10-16T02:35:21;6.50;;;3.08;;
1545;SDS011;766;51.502;9.752;2022-10-16T02:37:50;5.78;;;3.17;;
1545;SDS011;766;51.502;9.752;2022-10-16T02:40:20;5.25;;;3.10;;
1545;SDS011;766;51.502;9.752;2022-10-16T02:42:51;5.55;;;3.50;;
1545;SDS011;766;51.502;9.752;2022-10-16T02:45:22;6.43;;;3.30;;
1545;SDS011;766;51.502;9.752;2022-10-16T02:47:52;4.00;;;3.65;;
1545;SDS011;766;51.502;9.752;2022-10-16T02:50:20;5.20;;;4.20;;
1545;SDS011;766;51.502;9.752;2022-10-16T02:52:50;5.68;;;4.25;;
1545;SDS011;766;51.502;9.752;2022-10-16T02:55:19;7.47;;;4.07;;
1545;SDS011;766;51.502;9.752;2022-10-16T02:57:48;5.05;;;4.55;;
1545;SDS011;766;51.502;9.752;2022-10-16T03:00:16;5.50;;;4.88;;
1545;SDS011;766;51.502;9.752;2022-10-16T03:02:46;5.63;;;4.60;;
1545;SDS011;766;51.502;9.752;2022-10-16T03:05:15;5.28;;;4.57;;
1545;SDS011;766;51.502;9.752;2022-10-16T03:07:44;5.10;;;4.60;;
1545;SDS011;766;51.502;9.752;2022-10-16T03:10:12;8.18;;;4.72;;
1545;SDS011;766;51.502;9.752;2022-10-16T03:12:40;7.18;;;5.25;;
1545;SDS011;766;51.502;9.752;2022-10-16T03:15:09;5.50;;;4.75;;
1545;SDS011;766;51.502;9.752;2022-10-16T03:17:37;7.43;;;4.93;;
1545;SDS011;766;51.502;9.752;2022-10-16T03:20:07;7.03;;;4.95;;
1545;SDS011;766;51.502;9.752;2022-10-16T03:22:36;7.75;;;4.05;;
1545;SDS011;766;51.502;9.752;2022-10-16T03:25:05;8.15;;;5.00;;
1545;SDS011;766;51.502;9.752;2022-10-16T03:27:34;5.40;;;4.90;;
1545;SDS011;766;51.502;9.752;2022-10-16T03:30:02;5.65;;;5.07;;
1545;SDS011;766;51.502;9.752;2022-10-16T03:32:31;7.53;;;5.20;;
1545;SDS011;766;51.502;9.752;2022-10-16T03:35:05;6.15;;;5.20;;
1545;SDS011;766;51.502;9.752;2022-10-16T03:37:35;11.80;;;5.55;;
1545;SDS011;766;51.502;9.752;2022-10-16T03:40:04;6.22;;;5.63;;
1545;SDS011;766;51.502;9.752;2022-10-16T03:42:33;9.70;;;5.57;;
1545;SDS011;766;51.502;9.752;2022-10-16T03:45:02;5.97;;;5.18;;
1545;SDS011;766;51.502;9.752;2022-10-16T03:47:30;5.90;;;5.40;;
1545;SDS011;766;51.502;9.752;2022-10-16T03:50:03;5.05;;;4.65;;
1545;SDS011;766;51.502;9.752;2022-10-16T03:52:32;6.18;;;5.25;;
1545;SDS011;766;51.502;9.752;2022-10-16T03:55:02;5.18;;;4.53;;
1545;SDS011;766;51.502;9.752;2022-10-16T03:57:31;5.00;;;4.53;;
1545;SDS011;766;51.502;9.752;2022-10-16T04:00:00;5.13;;;4.63;;
1545;SDS011;766;51.502;9.752;2022-10-16T04:02:28;7.07;;;4.72;;
1545;SDS011;766;51.502;9.752;2022-10-16T04:04:57;4.78;;;4.35;;
1545;SDS011;766;51.502;9.752;2022-10-16T04:07:28;6.65;;;5.18;;
1545;SDS011;766;51.502;9.752;2022-10-16T04:09:56;6.40;;;4.72;;
1545;SDS011;766;51.502;9.752;2022-10-16T04:12:26;5.70;;;5.15;;
1545;SDS011;766;51.502;9.752;2022-10-16T04:14:55;5.13;;;4.65;;
1545;SDS011;766;51.502;9.752;2022-10-16T04:17:23;5.72;;;5.20;;
1545;SDS011;766;51.502;9.752;2022-10-16T04:19:52;6.93;;;5.85;;
1545;SDS011;766;51.502;9.752;2022-10-16T04:22:21;6.40;;;5.20;;
1545;SDS011;766;51.502;9.752;2022-10-16T04:24:49;6.43;;;5.80;;
1545;SDS011;766;51.502;9.752;2022-10-16T04:27:17;12.18;;;5.65;;
1545;SDS011;766;51.502;9.752;2022-10-16T04:29:51;15.77;;;6.03;;
1545;SDS011;766;51.502;9.752;2022-10-16T04:32:19;5.85;;;5.35;;
1545;SDS011;766;51.502;9.752;2022-10-16T04:34:47;8.10;;;5.72;;
1545;SDS011;766;51.502;9.752;2022-10-16T04:37:16;9.88;;;5.88;;
1545;SDS011;766;51.502;9.752;2022-10-16T04:39:44;6.00;;;5.40;;
1545;SDS011;766;51.502;9.752;2022-10-16T04:42:15;8.25;;;5.03;;
1545;SDS011;766;51.502;9.752;2022-10-16T04:44:43;5.35;;;4.85;;
1545;SDS011;766;51.502;9.752;2022-10-16T04:47:13;5.20;;;4.70;;
1545;SDS011;766;51.502;9.752;2022-10-16T04:49:42;6.05;;;5.03;;
1545;SDS011;766;51.502;9.752;2022-10-16T04:52:11;4.70;;;4.30;;
1545;SDS011;766;51.502;9.752;2022-10-16T04:54:39;4.32;;;3.92;;
1545;SDS011;766;51.502;9.752;2022-10-16T04:57:08;7.53;;;4.25;;
1545;SDS011;766;51.502;9.752;2022-10-16T04:59:36;6.95;;;3.80;;
1545;SDS011;766;51.502;9.752;2022-10-16T05:02:05;6.70;;;3.95;;
1545;SDS011;766;51.502;9.752;2022-10-16T05:04:35;3.40;;;3.10;;
1545;SDS011;766;51.502;9.752;2022-10-16T05:07:03;6.43;;;3.00;;
1545;SDS011;766;51.502;9.752;2022-10-16T05:09:31;4.18;;;2.90;;
1545;SDS011;766;51.502;9.752;2022-10-16T05:12:02;3.10;;;2.63;;
1545;SDS011;766;51.502;9.752;2022-10-16T05:14:31;6.32;;;2.85;;
1545;SDS011;766;51.502;9.752;2022-10-16T05:16:59;3.50;;;2.47;;
1545;SDS011;766;51.502;9.752;2022-10-16T05:19:28;6.28;;;1.90;;
1545;SDS011;766;51.502;9.752;2022-10-16T05:21:57;3.20;;;1.92;;
1545;SDS011;766;51.502;9.752;2022-10-16T05:24:26;3.25;;;2.15;;
1545;SDS011;766;51.502;9.752;2022-10-16T05:26:55;3.28;;;2.67;;
1545;SDS011;766;51.502;9.752;2022-10-16T05:29:23;3.88;;;2.20;;
1545;SDS011;766;51.502;9.752;2022-10-16T05:31:52;2.88;;;2.15;;
1545;SDS011;766;51.502;9.752;2022-10-16T05:34:20;4.63;;;2.47;;
1545;SDS011;766;51.502;9.752;2022-10-16T05:36:48;3.00;;;2.63;;
1545;SDS011;766;51.502;9.752;2022-10-16T05:39:19;2.55;;;2.35;;
1545;SDS011;766;51.502;9.752;2022-10-16T05:41:49;2.28;;;1.60;;
1545;SDS011;766;51.502;9.752;2022-10-16T05:44:18;2.72;;;2.05;;
1545;SDS011;766;51.502;9.752;2022-10-16T05:46:47;2.80;;;1.90;;
1545;SDS011;766;51.502;9.752;2022-10-16T05:49:15;4.55;;;2.33;;
1545;SDS011;766;51.502;9.752;2022-10-16T05:51:44;3.13;;;1.77;;
1545;SDS011;766;51.502;9.752;2022-10-16T05:54:12;3.30;;;2.30;;
1545;SDS011;766;51.502;9.752;2022-10-16T05:56:42;4.28;;;2.33;;
1545;SDS011;766;51.502;9.752;2022-10-16T05:59:11;2.78;;;2.15;;
1545;SDS011;766;51.502;9.752;2022-10-16T06:01:40;3.75;;;2.58;;
1545;SDS011;766;51.502;9.752;2022-10-16T06:04:08;3.38;;;2.30;;
1545;SDS011;766;51.502;9.752;2022-10-16T06:06:36;6.30;;;2.13;;
1545;SDS011;766;51.502;9.752;2022-10-16T06:09:07;9.20;;;2.78;;
1545;SDS011;766;51.502;9.752;2022-10-16T06:11:36;2.55;;;2.35;;
1545;SDS011;766;51.502;9.752;2022-10-16T06:14:06;3.33;;;2.60;;
1545;SDS011;766;51.502;9.752;2022-10-16T06:16:36;6.95;;;2.90;;
1545;SDS011;766;51.502;9.752;2022-10-16T06:19:05;3.63;;;2.67;;
1545;SDS011;766;51.502;9.752;2022-10-16T06:21:34;3.90;;;2.20;;
1545;SDS011;766;51.502;9.752;2022-10-16T06:24:02;3.55;;;2.22;;
1545;SDS011;766;51.502;9.752;2022-10-16T06:26:31;4.35;;;2.13;;
1545;SDS011;766;51.502;9.752;2022-10-16T06:29:00;2.90;;;2.60;;
1545;SDS011;766;51.502;9.752;2022-10-16T06:31:30;2.70;;;2.50;;
1545;SDS011;766;51.502;9.752;2022-10-16T06:34:00;5.20;;;2.88;;
1545;SDS011;766;51.502;9.752;2022-10-16T06:36:29;5.20;;;2.63;;
1545;SDS011;766;51.502;9.752;2022-10-16T06:38:57;5.80;;;3.08;;
1545;SDS011;766;51.502;9.752;2022-10-16T06:41:26;11.45;;;3.00;;
1545;SDS011;766;51.502;9.752;2022-10-16T06:43:54;4.00;;;3.00;;
1545;SDS011;766;51.502;9.752;2022-10-16T06:46:23;3.83;;;2.75;;
1545;SDS011;766;51.502;9.752;2022-10-16T06:48:53;3.15;;;2.85;;
1545;SDS011;766;51.502;9.752;2022-10-16T06:51:22;3.33;;;2.95;;
1545;SDS011;766;51.502;9.752;2022-10-16T06:53:51;4.78;;;2.60;;
1545;SDS011;766;51.502;9.752;2022-10-16T06:56:30;5.35;;;2.72;;
1545;SDS011;766;51.502;9.752;2022-10-16T06:59:00;3.00;;;2.70;;
1545;SDS011;766;51.502;9.752;2022-10-16T07:01:31;4.55;;;2.78;;
1545;SDS011;766;51.502;9.752;2022-10-16T07:04:01;3.17;;;2.83;;
1545;SDS011;766;51.502;9.752;2022-10-16T07:06:31;4.80;;;2.67;;
1545;SDS011;766;51.502;9.752;2022-10-16T07:09:02;2.88;;;2.60;;
1545;SDS011;766;51.502;9.752;2022-10-16T07:11:32;4.72;;;2.50;;
1545;SDS011;766;51.502;9.752;2022-10-16T07:14:01;2.40;;;2.20;;
1545;SDS011;766;51.502;9.752;2022-10-16T07:16:29;5.18;;;2.70;;
1545;SDS011;766;51.502;9.752;2022-10-16T07:19:01;3.28;;;2.65;;
1545;SDS011;766;51.502;9.752;2022-10-16T07:21:30;4.32;;;2.80;;
1545;SDS011;766;51.502;9.752;2022-10-16T07:24:02;6.75;;;2.72;;
1545;SDS011;766;51.502;9.752;2022-10-16T07:26:33;2.65;;;2.45;;
1545;SDS011;766;51.502;9.752;2022-10-16T07:29:03;4.95;;;3.28;;
1545;SDS011;766;51.502;9.752;2022-10-16T07:31:32;4.72;;;2.85;;
1545;SDS011;766;51.502;9.752;2022-10-16T07:34:01;3.72;;;2.38;;
1545;SDS011;766;51.502;9.752;2022-10-16T07:36:30;3.05;;;2.10;;
1545;SDS011;766;51.502;9.752;2022-10-16T07:39:01;3.13;;;1.90;;
1545;SDS011;766;51.502;9.752;2022-10-16T07:41:38;2.20;;;1.73;;
1545;SDS011;766;51.502;9.752;2022-10-16T07:44:06;3.03;;;1.63;;
1545;SDS011;766;51.502;9.752;2022-10-16T07:46:35;1.60;;;1.50;;
1545;SDS011;766;51.502;9.752;2022-10-16T07:49:05;2.67;;;1.20;;
1545;SDS011;766;51.502;9.752;2022-10-16T07:51:33;2.47;;;1.50;;
1545;SDS011;766;51.502;9.752;2022-10-16T07:54:02;2.80;;;1.20;;
1545;SDS011;766;51.502;9.752;2022-10-16T07:56:31;3.03;;;1.20;;
1545;SDS011;766;51.502;9.752;2022-10-16T07:59:02;1.75;;;1.08;;
1545;SDS011;766;51.502;9.752;2022-10-16T08:01:36;2.10;;;1.00;;
1545;SDS011;766;51.502;9.752;2022-10-16T08:04:07;1.13;;;1.00;;
1545;SDS011;766;51.502;9.752;2022-10-16T08:06:37;1.98;;;1.00;;
1545;SDS011;766;51.502;9.752;2022-10-16T08:09:07;4.20;;;1.10;;
1545;SDS011;766;51.502;9.752;2022-10-16T08:11:36;1.50;;;1.00;;
1545;SDS011;766;51.502;9.752;2022-10-16T08:14:04;1.10;;;1.00;;
1545;SDS011;766;51.502;9.752;2022-10-16T08:16:33;0.88;;;0.82;;
1545;SDS011;766;51.502;9.752;2022-10-16T08:19:01;1.45;;;0.90;;
1545;SDS011;766;51.502;9.752;2022-10-16T08:21:31;1.75;;;0.98;;
1545;SDS011;766;51.502;9.752;2022-10-16T08:23:59;1.40;;;0.77;;
1545;SDS011;766;51.502;9.752;2022-10-16T08:26:28;1.67;;;1.00;;
1545;SDS011;766;51.502;9.752;2022-10-16T08:28:57;1.50;;;0.98;;
1545;SDS011;766;51.502;9.752;2022-10-16T08:31:25;3.75;;;1.30;;
1545;SDS011;766;51.502;9.752;2022-10-16T08:33:54;1.23;;;0.80;;
1545;SDS011;766;51.502;9.752;2022-10-16T08:36:22;1.08;;;0.80;;
1545;SDS011;766;51.502;9.752;2022-10-16T08:38:52;3.63;;;1.30;;
1545;SDS011;766;51.502;9.752;2022-10-16T08:44:36;8.60;;;1.25;;
1545;SDS011;766;51.502;9.752;2022-10-16T08:47:31;1.60;;;0.80;;
1545;SDS011;766;51.502;9.752;2022-10-16T08:50:12;2.42;;;1.00;;
1545;SDS011;766;51.502;9.752;2022-10-16T08:52:45;0.80;;;0.70;;
1545;SDS011;766;51.502;9.752;2022-10-16T08:55:19;3.75;;;0.93;;
1545;SDS011;766;51.502;9.752;2022-10-16T08:57:56;0.80;;;0.80;;
1545;SDS011;766;51.502;9.752;2022-10-16T09:00:25;0.93;;;0.80;;
1545;SDS011;766;51.502;9.752;2022-10-16T09:02:57;1.45;;;0.70;;
1545;SDS011;766;51.502;9.752;2022-10-16T09:05:45;0.80;;;0.70;;
1545;SDS011;766;51.502;9.752;2022-10-16T09:08:28;3.25;;;0.80;;
1545;SDS011;766;51.502;9.752;2022-10-16T09:11:07;2.83;;;1.10;;
1545;SDS011;766;51.502;9.752;2022-10-16T09:13:43;2.08;;;0.90;;
1545;SDS011;766;51.502;9.752;2022-10-16T09:16:22;2.97;;;1.20;;
1545;SDS011;766;51.502;9.752;2022-10-16T09:18:56;1.38;;;0.73;;
1545;SDS011;766;51.502;9.752;2022-10-16T09:21:31;0.70;;;0.60;;
1545;SDS011;766;51.502;9.752;2022-10-16T09:24:07;1.20;;;0.77;;
1545;SDS011;766;51.502;9.752;2022-10-16T09:26:40;1.15;;;0.60;;
1545;SDS011;766;51.502;9.752;2022-10-16T09:29:09;0.73;;;0.73;;
1545;SDS011;766;51.502;9.752;2022-10-16T09:31:40;1.48;;;0.80;;
1545;SDS011;766;51.502;9.752;2022-10-16T09:34:12;3.40;;;1.00;;
1545;SDS011;766;51.502;9.752;2022-10-16T09:36:50;0.93;;;0.80;;
1545;SDS011;766;51.502;9.752;2022-10-16T09:39:19;2.58;;;0.80;;
1545;SDS011;766;51.502;9.752;2022-10-16T09:44:27;0.80;;;0.80;;
1545;SDS011;766;51.502;9.752;2022-10-16T09:47:02;3.25;;;1.10;;
1545;SDS011;766;51.502;9.752;2022-10-16T09:49:32;5.85;;;0.90;;
1545;SDS011;766;51.502;9.752;2022-10-16T09:52:04;1.90;;;0.88;;
1545;SDS011;766;51.502;9.752;2022-10-16T09:54:34;2.97;;;0.90;;
1545;SDS011;766;51.502;9.752;2022-10-16T09:57:05;3.33;;;0.93;;
1545;SDS011;766;51.502;9.752;2022-10-16T09:59:45;1.48;;;0.93;;
1545;SDS011;766;51.502;9.752;2022-10-16T10:02:15;1.73;;;0.90;;
1545;SDS011;766;51.502;9.752;2022-10-16T10:04:48;1.40;;;0.95;;
1545;SDS011;766;51.502;9.752;2022-10-16T10:07:21;3.10;;;0.93;;
1545;SDS011;766;51.502;9.752;2022-10-16T10:09:53;1.38;;;0.77;;
1545;SDS011;766;51.502;9.752;2022-10-16T10:12:24;3.00;;;0.65;;
1545;SDS011;766;51.502;9.752;2022-10-16T10:14:57;1.83;;;0.75;;
1545;SDS011;766;51.502;9.752;2022-10-16T10:17:31;1.00;;;0.90;;
1545;SDS011;766;51.502;9.752;2022-10-16T10:20:01;0.85;;;0.73;;
1545;SDS011;766;51.502;9.752;2022-10-16T10:22:45;5.82;;;1.20;;
1545;SDS011;766;51.502;9.752;2022-10-16T10:25:21;0.50;;;0.50;;
1545;SDS011;766;51.502;9.752;2022-10-16T10:28:15;4.00;;;0.80;;
1545;SDS011;766;51.502;9.752;2022-10-16T10:30:56;2.63;;;0.82;;
1545;SDS011;766;51.502;9.752;2022-10-16T10:33:31;1.35;;;0.80;;
1545;SDS011;766;51.502;9.752;2022-10-16T10:36:12;2.22;;;0.80;;
1545;SDS011;766;51.502;9.752;2022-10-16T10:38:50;2.95;;;0.70;;
1545;SDS011;766;51.502;9.752;2022-10-16T10:41:27;2.05;;;0.70;;
1545;SDS011;766;51.502;9.752;2022-10-16T10:44:16;1.17;;;0.65;;
1545;SDS011;766;51.502;9.752;2022-10-16T10:46:54;0.60;;;0.60;;
1545;SDS011;766;51.502;9.752;2022-10-16T10:49:28;0.75;;;0.60;;
1545;SDS011;766;51.502;9.752;2022-10-16T10:52:08;1.38;;;0.68;;
1545;SDS011;766;51.502;9.752;2022-10-16T10:54:55;0.73;;;0.70;;
1545;SDS011;766;51.502;9.752;2022-10-16T10:57:30;2.22;;;0.90;;
1545;SDS011;766;51.502;9.752;2022-10-16T11:00:07;4.93;;;0.80;;
1545;SDS011;766;51.502;9.752;2022-10-16T11:02:48;1.10;;;0.85;;
1545;SDS011;766;51.502;9.752;2022-10-16T11:05:27;2.17;;;0.80;;
1545;SDS011;766;51.502;9.752;2022-10-16T11:08:08;0.70;;;0.60;;
1545;SDS011;766;51.502;9.752;2022-10-16T11:10:47;0.50;;;0.50;;
1545;SDS011;766;51.502;9.752;2022-10-16T11:13:24;3.60;;;0.70;;
1545;SDS011;766;51.502;9.752;2022-10-16T11:15:58;2.28;;;0.68;;
1545;SDS011;766;51.502;9.752;2022-10-16T11:18:32;1.00;;;0.80;;
1545;SDS011;766;51.502;9.752;2022-10-16T11:21:10;1.58;;;0.70;;
1545;SDS011;766;51.502;9.752;2022-10-16T11:23:43;0.60;;;0.60;;
1545;SDS011;766;51.502;9.752;2022-10-16T11:26:17;0.95;;;0.68;;
1545;SDS011;766;51.502;9.752;2022-10-16T11:28:48;3.75;;;0.70;;
1545;SDS011;766;51.502;9.752;2022-10-16T11:31:19;2.17;;;0.55;;
1545;SDS011;766;51.502;9.752;2022-10-16T11:33:59;2.15;;;0.70;;
1545;SDS011;766;51.502;9.752;2022-10-16T11:36:35;3.40;;;0.80;;
1545;SDS011;766;51.502;9.752;2022-10-16T11:39:11;1.50;;;0.70;;
1545;SDS011;766;51.502;9.752;2022-10-16T11:41:48;0.98;;;0.73;;
1545;SDS011;766;51.502;9.752;2022-10-16T11:44:31;0.93;;;0.47;;
1545;SDS011;766;51.502;9.752;2022-10-16T11:47:08;1.75;;;0.50;;
1545;SDS011;766;51.502;9.752;2022-10-16T11:50:12;0.45;;;0.40;;
1545;SDS011;766;51.502;9.752;2022-10-16T11:52:51;1.15;;;0.68;;
1545;SDS011;766;51.502;9.752;2022-10-16T11:55:26;2.58;;;0.80;;
1545;SDS011;766;51.502;9.752;2022-10-16T11:58:01;4.03;;;0.70;;
1545;SDS011;766;51.502;9.752;2022-10-16T12:00:35;1.45;;;0.35;;
1545;SDS011;766;51.502;9.752;2022-10-16T12:03:11;1.58;;;0.43;;
1545;SDS011;766;51.502;9.752;2022-10-16T12:06:01;1.52;;;0.55;;
1545;SDS011;766;51.502;9.752;2022-10-16T12:08:44;0.50;;;0.50;;
1545;SDS011;766;51.502;9.752;2022-10-16T12:12:24;1.85;;;0.50;;
1545;SDS011;766;51.502;9.752;2022-10-16T12:15:01;2.00;;;0.70;;
1545;SDS011;766;51.502;9.752;2022-10-16T12:17:51;1.80;;;0.60;;
1545;SDS011;766;51.502;9.752;2022-10-16T12:20:24;2.15;;;0.50;;
1545;SDS011;766;51.502;9.752;2022-10-16T12:22:58;1.25;;;0.68;;
1545;SDS011;766;51.502;9.752;2022-10-16T12:25:29;2.85;;;1.10;;
1545;SDS011;766;51.502;9.752;2022-10-16T12:28:00;0.63;;;0.40;;
1545;SDS011;766;51.502;9.752;2022-10-16T12:30:31;0.50;;;0.50;;
1545;SDS011;766;51.502;9.752;2022-10-16T12:33:02;0.40;;;0.40;;
1545;SDS011;766;51.502;9.752;2022-10-16T12:35:33;0.70;;;0.63;;
1545;SDS011;766;51.502;9.752;2022-10-16T12:38:19;2.60;;;0.60;;
1545;SDS011;766;51.502;9.752;2022-10-16T12:40:54;0.40;;;0.40;;
1545;SDS011;766;51.502;9.752;2022-10-16T12:43:27;1.95;;;0.50;;
1545;SDS011;766;51.502;9.752;2022-10-16T12:46:05;1.65;;;0.43;;
1545;SDS011;766;51.502;9.752;2022-10-16T12:48:49;0.43;;;0.43;;
1545;SDS011;766;51.502;9.752;2022-10-16T12:51:34;3.63;;;0.45;;
1545;SDS011;766;51.502;9.752;2022-10-16T12:54:11;1.77;;;0.70;;
1545;SDS011;766;51.502;9.752;2022-10-16T12:56:45;1.67;;;0.60;;
1545;SDS011;766;51.502;9.752;2022-10-16T12:59:24;0.65;;;0.52;;
1545;SDS011;766;51.502;9.752;2022-10-16T13:02:06;0.52;;;0.45;;
1545;SDS011;766;51.502;9.752;2022-10-16T13:04:52;2.38;;;1.00;;
1545;SDS011;766;51.502;9.752;2022-10-16T13:07:48;0.85;;;0.50;;
1545;SDS011;766;51.502;9.752;2022-10-16T13:10:31;0.82;;;0.70;;
1545;SDS011;766;51.502;9.752;2022-10-16T13:13:12;0.70;;;0.50;;
1545;SDS011;766;51.502;9.752;2022-10-16T13:15:57;0.80;;;0.43;;
1545;SDS011;766;51.502;9.752;2022-10-16T13:18:35;0.93;;;0.70;;
1545;SDS011;766;51.502;9.752;2022-10-16T13:21:19;0.95;;;0.60;;
1545;SDS011;766;51.502;9.752;2022-10-16T13:24:01;6.07;;;0.57;;
1545;SDS011;766;51.502;9.752;2022-10-16T13:26:38;1.73;;;0.77;;
1545;SDS011;766;51.502;9.752;2022-10-16T13:29:12;2.05;;;0.80;;
1545;SDS011;766;51.502;9.752;2022-10-16T13:31:40;2.50;;;0.65;;
1545;SDS011;766;51.502;9.752;2022-10-16T13:34:12;4.22;;;1.00;;
1545;SDS011;766;51.502;9.752;2022-10-16T13:36:44;0.65;;;0.55;;
1545;SDS011;766;51.502;9.752;2022-10-16T13:39:14;0.90;;;0.47;;
1545;SDS011;766;51.502;9.752;2022-10-16T13:42:00;2.63;;;0.60;;
1545;SDS011;766;51.502;9.752;2022-10-16T13:44:35;2.70;;;0.80;;
1545;SDS011;766;51.502;9.752;2022-10-16T13:47:13;1.58;;;0.80;;
1545;SDS011;766;51.502;9.752;2022-10-16T13:49:44;1.20;;;0.60;;
1545;SDS011;766;51.502;9.752;2022-10-16T13:52:16;1.05;;;0.60;;
1545;SDS011;766;51.502;9.752;2022-10-16T13:54:46;0.50;;;0.40;;
1545;SDS011;766;51.502;9.752;2022-10-16T13:57:16;0.52;;;0.50;;
1545;SDS011;766;51.502;9.752;2022-10-16T13:59:53;1.65;;;0.52;;
1545;SDS011;766;51.502;9.752;2022-10-16T14:02:25;0.88;;;0.47;;
1545;SDS011;766;51.502;9.752;2022-10-16T14:04:55;0.52;;;0.50;;
1545;SDS011;766;51.502;9.752;2022-10-16T14:07:27;1.05;;;0.50;;
1545;SDS011;766;51.502;9.752;2022-10-16T14:09:59;0.65;;;0.50;;
1545;SDS011;766;51.502;9.752;2022-10-16T14:12:33;0.77;;;0.43;;
1545;SDS011;766;51.502;9.752;2022-10-16T14:15:03;2.20;;;0.47;;
1545;SDS011;766;51.502;9.752;2022-10-16T14:17:32;1.17;;;0.50;;
1545;SDS011;766;51.502;9.752;2022-10-16T14:20:04;0.90;;;0.60;;
1545;SDS011;766;51.502;9.752;2022-10-16T14:22:37;0.82;;;0.40;;
1545;SDS011;766;51.502;9.752;2022-10-16T14:25:20;1.77;;;0.40;;
1545;SDS011;766;51.502;9.752;2022-10-16T14:27:59;2.25;;;0.50;;
1545;SDS011;766;51.502;9.752;2022-10-16T14:30:30;0.50;;;0.40;;
1545;SDS011;766;51.502;9.752;2022-10-16T14:33:01;2.65;;;0.40;;
1545;SDS011;766;51.502;9.752;2022-10-16T14:35:32;2.22;;;0.50;;
1545;SDS011;766;51.502;9.752;2022-10-16T14:38:02;2.10;;;0.70;;
1545;SDS011;766;51.502;9.752;2022-10-16T14:40:33;2.60;;;0.60;;
1545;SDS011;766;51.502;9.752;2022-10-16T14:43:06;1.38;;;0.57;;
1545;SDS011;766;51.502;9.752;2022-10-16T14:45:34;0.50;;;0.50;;
1545;SDS011;766;51.502;9.752;2022-10-16T14:48:05;3.03;;;0.60;;
1545;SDS011;766;51.502;9.752;2022-10-16T14:50:45;1.55;;;0.47;;
1545;SDS011;766;51.502;9.752;2022-10-16T14:53:14;0.85;;;0.50;;
1545;SDS011;766;51.502;9.752;2022-10-16T14:55:44;3.95;;;0.57;;
1545;SDS011;766;51.502;9.752;2022-10-16T14:58:16;3.10;;;0.50;;
1545;SDS011;766;51.502;9.752;2022-10-16T15:00:47;5.40;;;1.08;;
1545;SDS011;766;51.502;9.752;2022-10-16T15:03:17;1.58;;;0.50;;
1545;SDS011;766;51.502;9.752;2022-10-16T15:05:45;0.50;;;0.50;;
1545;SDS011;766;51.502;9.752;2022-10-16T15:08:14;0.85;;;0.47;;
1545;SDS011;766;51.502;9.752;2022-10-16T15:10:43;0.40;;;0.40;;
1545;SDS011;766;51.502;9.752;2022-10-16T15:13:12;1.00;;;0.45;;
1545;SDS011;766;51.502;9.752;2022-10-16T15:15:43;1.42;;;0.73;;
1545;SDS011;766;51.502;9.752;2022-10-16T15:18:13;1.52;;;0.80;;
1545;SDS011;766;51.502;9.752;2022-10-16T15:20:47;1.02;;;0.50;;
1545;SDS011;766;51.502;9.752;2022-10-16T15:23:17;1.05;;;0.60;;
1545;SDS011;766;51.502;9.752;2022-10-16T15:25:51;1.27;;;0.55;;
1545;SDS011;766;51.502;9.752;2022-10-16T15:28:21;0.50;;;0.50;;
1545;SDS011;766;51.502;9.752;2022-10-16T15:30:54;0.52;;;0.50;;
1545;SDS011;766;51.502;9.752;2022-10-16T15:33:25;3.80;;;0.50;;
1545;SDS011;766;51.502;9.752;2022-10-16T15:36:05;2.95;;;0.50;;
1545;SDS011;766;51.502;9.752;2022-10-16T15:38:34;2.45;;;0.40;;
1545;SDS011;766;51.502;9.752;2022-10-16T15:41:02;2.25;;;0.47;;
1545;SDS011;766;51.502;9.752;2022-10-16T15:43:31;1.88;;;0.68;;
1545;SDS011;766;51.502;9.752;2022-10-16T15:46:01;2.28;;;0.60;;
1545;SDS011;766;51.502;9.752;2022-10-16T15:48:32;0.45;;;0.40;;
1545;SDS011;766;51.502;9.752;2022-10-16T15:51:00;20.10;;;4.78;;
1545;SDS011;766;51.502;9.752;2022-10-16T15:53:33;6.03;;;1.88;;
1545;SDS011;766;51.502;9.752;2022-10-16T15:56:01;0.55;;;0.55;;
1545;SDS011;766;51.502;9.752;2022-10-16T15:58:32;0.80;;;0.80;;
1545;SDS011;766;51.502;9.752;2022-10-16T16:01:03;3.75;;;0.60;;
1545;SDS011;766;51.502;9.752;2022-10-16T16:03:31;0.63;;;0.43;;
1545;SDS011;766;51.502;9.752;2022-10-16T16:06:05;1.00;;;0.90;;
1545;SDS011;766;51.502;9.752;2022-10-16T16:08:36;53.40;;;48.25;;